GEC235 KSAN-KLAX
Flight info
| Callsign | GEC235 |
|---|---|
| Flight time | 0h 24m |
| Altitude | 10000 |
| Route | CWARD2 SLI |
| Aircraft | MD11/H-SDE1E2E3FGHIJ2J3J4J5M1RWXY/LB1D1 |
Departure
| Time | 2026-04-23 03:37 |
|---|---|
| Airport | San Diego International Airport (KSAN) |
Arrival
| Time | 2026-04-23 04:01 |
|---|---|
| Airport | Los Angeles International Airport (KLAX) |
| Time | Latitude | Longitude | Altitude | Speed | Heading |
|---|---|---|---|---|---|
| 2026-04-23 03:14 | 32.73741 | -117.18568 | 40 ft | 0 kts | 350° |
| 2026-04-23 03:23 | 32.73738 | -117.18567 | 33 ft | 2 kts | 350° |
| 2026-04-23 03:23 | 32.73720 | -117.18564 | 32 ft | 3 kts | 355° |
| 2026-04-23 03:23 | 32.73699 | -117.18562 | 32 ft | 3 kts | 358° |
| 2026-04-23 03:24 | 32.73679 | -117.18561 | 32 ft | 3 kts | 356° |
| 2026-04-23 03:24 | 32.73659 | -117.18559 | 31 ft | 3 kts | 350° |
| 2026-04-23 03:24 | 32.73639 | -117.18555 | 30 ft | 3 kts | 355° |
| 2026-04-23 03:24 | 32.73638 | -117.18559 | 31 ft | 1 kts | 327° |
| 2026-04-23 03:25 | 32.73638 | -117.18564 | 32 ft | 0 kts | 199° |
| 2026-04-23 03:25 | 32.73639 | -117.18560 | 31 ft | 0 kts | 144° |
| 2026-04-23 03:26 | 32.73638 | -117.18560 | 31 ft | 0 kts | 144° |
| 2026-04-23 03:27 | 32.73637 | -117.18558 | 31 ft | 0 kts | 144° |
| 2026-04-23 03:27 | 32.73633 | -117.18555 | 28 ft | 1 kts | 144° |
| 2026-04-23 03:27 | 32.73626 | -117.18549 | 29 ft | 2 kts | 144° |
| 2026-04-23 03:28 | 32.73616 | -117.18540 | 31 ft | 2 kts | 144° |
| 2026-04-23 03:28 | 32.73606 | -117.18533 | 31 ft | 2 kts | 144° |
| 2026-04-23 03:28 | 32.73597 | -117.18524 | 30 ft | 2 kts | 144° |
| 2026-04-23 03:28 | 32.73569 | -117.18501 | 30 ft | 8 kts | 145° |
| 2026-04-23 03:29 | 32.73500 | -117.18443 | 32 ft | 12 kts | 146° |
| 2026-04-23 03:29 | 32.73445 | -117.18399 | 32 ft | 4 kts | 155° |
| 2026-04-23 03:29 | 32.73401 | -117.18395 | 33 ft | 10 kts | 185° |
| 2026-04-23 03:29 | 32.73353 | -117.18388 | 33 ft | 1 kts | 150° |
| 2026-04-23 03:30 | 32.73340 | -117.18367 | 32 ft | 19 kts | 126° |
| 2026-04-23 03:30 | 32.73274 | -117.18153 | 32 ft | 30 kts | 105° |
| 2026-04-23 03:30 | 32.73221 | -117.17923 | 30 ft | 28 kts | 105° |
| 2026-04-23 03:30 | 32.73172 | -117.17718 | 32 ft | 23 kts | 107° |
| 2026-04-23 03:31 | 32.73129 | -117.17602 | 31 ft | 1 kts | 133° |
| 2026-04-23 03:31 | 32.73127 | -117.17598 | 31 ft | 0 kts | 128° |
| 2026-04-23 03:35 | 32.73124 | -117.17595 | 31 ft | 6 kts | 130° |
| 2026-04-23 03:35 | 32.73060 | -117.17548 | 32 ft | 5 kts | 179° |
| 2026-04-23 03:36 | 32.73030 | -117.17571 | 32 ft | 14 kts | 218° |
| 2026-04-23 03:36 | 32.73022 | -117.17683 | 29 ft | 16 kts | 302° |
| 2026-04-23 03:36 | 32.73053 | -117.17748 | 30 ft | 0 kts | 289° |
| 2026-04-23 03:36 | 32.73071 | -117.17809 | 30 ft | 37 kts | 288° |
| 2026-04-23 03:37 | 32.73242 | -117.18479 | 33 ft | 128 kts | 288° |
| 2026-04-23 03:37 | 32.73571 | -117.19664 | 330 ft | 161 kts | 290° |
| 2026-04-23 03:37 | 32.73950 | -117.20907 | 1187 ft | 160 kts | 291° |
| 2026-04-23 03:37 | 32.74367 | -117.22149 | 2240 ft | 177 kts | 299° |
| 2026-04-23 03:38 | 32.75062 | -117.23475 | 3252 ft | 195 kts | 305° |
| 2026-04-23 03:38 | 32.75903 | -117.24940 | 3749 ft | 240 kts | 304° |
| 2026-04-23 03:38 | 32.76868 | -117.26599 | 4813 ft | 248 kts | 304° |
| 2026-04-23 03:38 | 32.77859 | -117.28290 | 5980 ft | 253 kts | 304° |
| 2026-04-23 03:39 | 32.78881 | -117.30018 | 7087 ft | 257 kts | 304° |
| 2026-04-23 03:39 | 32.79933 | -117.31754 | 8162 ft | 261 kts | 305° |
| 2026-04-23 03:39 | 32.81036 | -117.33508 | 8970 ft | 267 kts | 305° |
| 2026-04-23 03:39 | 32.82151 | -117.35260 | 9341 ft | 266 kts | 306° |
| 2026-04-23 03:40 | 32.83272 | -117.37012 | 9729 ft | 267 kts | 305° |
| 2026-04-23 03:40 | 32.84399 | -117.38771 | 9940 ft | 268 kts | 305° |
| 2026-04-23 03:40 | 32.85530 | -117.40536 | 9979 ft | 268 kts | 305° |
| 2026-04-23 03:40 | 32.86644 | -117.42275 | 9983 ft | 268 kts | 305° |
| 2026-04-23 03:41 | 32.87804 | -117.44087 | 10036 ft | 291 kts | 305° |
| 2026-04-23 03:41 | 32.89094 | -117.46109 | 10041 ft | 316 kts | 306° |
| 2026-04-23 03:41 | 32.90439 | -117.48211 | 10041 ft | 321 kts | 306° |
| 2026-04-23 03:41 | 32.91796 | -117.50327 | 10037 ft | 322 kts | 306° |
| 2026-04-23 03:42 | 32.93153 | -117.52446 | 10026 ft | 322 kts | 306° |
| 2026-04-23 03:42 | 32.94512 | -117.54568 | 9985 ft | 322 kts | 306° |
| 2026-04-23 03:42 | 32.95872 | -117.56693 | 9982 ft | 323 kts | 306° |
| 2026-04-23 03:42 | 32.97230 | -117.58817 | 9982 ft | 323 kts | 306° |
| 2026-04-23 03:43 | 32.98589 | -117.60946 | 9979 ft | 323 kts | 306° |
| 2026-04-23 03:43 | 32.99947 | -117.63073 | 9979 ft | 322 kts | 306° |
| 2026-04-23 03:43 | 33.01283 | -117.65168 | 9984 ft | 322 kts | 306° |
| 2026-04-23 03:43 | 33.02636 | -117.67289 | 9976 ft | 321 kts | 306° |
| 2026-04-23 03:44 | 33.03986 | -117.69408 | 9976 ft | 321 kts | 306° |
| 2026-04-23 03:44 | 33.05349 | -117.71515 | 9979 ft | 322 kts | 308° |
| 2026-04-23 03:44 | 33.06903 | -117.73439 | 9981 ft | 323 kts | 314° |
| 2026-04-23 03:44 | 33.08576 | -117.75229 | 9977 ft | 324 kts | 316° |
| 2026-04-23 03:45 | 33.10282 | -117.76979 | 9976 ft | 324 kts | 317° |
| 2026-04-23 03:45 | 33.11996 | -117.78722 | 9976 ft | 323 kts | 317° |
| 2026-04-23 03:45 | 33.13706 | -117.80463 | 9976 ft | 323 kts | 317° |
| 2026-04-23 03:45 | 33.15377 | -117.82169 | 9976 ft | 324 kts | 317° |
| 2026-04-23 03:46 | 33.17088 | -117.83920 | 9976 ft | 324 kts | 317° |
| 2026-04-23 03:46 | 33.18862 | -117.85575 | 9968 ft | 326 kts | 326° |
| 2026-04-23 03:46 | 33.20960 | -117.86632 | 9981 ft | 330 kts | 339° |
| 2026-04-23 03:46 | 33.23197 | -117.87296 | 9977 ft | 332 kts | 344° |
| 2026-04-23 03:47 | 33.25463 | -117.87843 | 9976 ft | 332 kts | 345° |
| 2026-04-23 03:47 | 33.27730 | -117.88370 | 9976 ft | 332 kts | 345° |
| 2026-04-23 03:47 | 33.29998 | -117.88904 | 9976 ft | 332 kts | 345° |
| 2026-04-23 03:47 | 33.32235 | -117.89442 | 9975 ft | 332 kts | 344° |
| 2026-04-23 03:48 | 33.34498 | -117.89996 | 9972 ft | 332 kts | 344° |
| 2026-04-23 03:48 | 33.36762 | -117.90557 | 9970 ft | 332 kts | 344° |
| 2026-04-23 03:48 | 33.39012 | -117.91170 | 9970 ft | 331 kts | 341° |
| 2026-04-23 03:48 | 33.41213 | -117.91907 | 9969 ft | 330 kts | 340° |
| 2026-04-23 03:49 | 33.43410 | -117.92698 | 9965 ft | 330 kts | 339° |
| 2026-04-23 03:49 | 33.45603 | -117.93504 | 9970 ft | 330 kts | 339° |
| 2026-04-23 03:49 | 33.47799 | -117.94312 | 9965 ft | 330 kts | 339° |
| 2026-04-23 03:49 | 33.49960 | -117.95107 | 9963 ft | 330 kts | 339° |
| 2026-04-23 03:50 | 33.52153 | -117.95912 | 9964 ft | 329 kts | 339° |
| 2026-04-23 03:50 | 33.54342 | -117.96714 | 9963 ft | 329 kts | 339° |
| 2026-04-23 03:50 | 33.56534 | -117.97517 | 9962 ft | 329 kts | 339° |
| 2026-04-23 03:50 | 33.58723 | -117.98318 | 9959 ft | 329 kts | 339° |
| 2026-04-23 03:51 | 33.60910 | -117.99120 | 9958 ft | 329 kts | 339° |
| 2026-04-23 03:51 | 33.63101 | -117.99923 | 9972 ft | 326 kts | 339° |
| 2026-04-23 03:51 | 33.65209 | -118.00691 | 9860 ft | 307 kts | 339° |
| 2026-04-23 03:51 | 33.67202 | -118.01416 | 9722 ft | 291 kts | 339° |
| 2026-04-23 03:52 | 33.69079 | -118.02100 | 9511 ft | 272 kts | 339° |
| 2026-04-23 03:52 | 33.70838 | -118.02744 | 8806 ft | 266 kts | 339° |
| 2026-04-23 03:52 | 33.72600 | -118.03395 | 8172 ft | 261 kts | 339° |
| 2026-04-23 03:52 | 33.74354 | -118.04045 | 7813 ft | 265 kts | 339° |
| 2026-04-23 03:53 | 33.76117 | -118.04696 | 7414 ft | 265 kts | 340° |
| 2026-04-23 03:53 | 33.77873 | -118.05347 | 7066 ft | 263 kts | 339° |
| 2026-04-23 03:53 | 33.79592 | -118.06095 | 6949 ft | 263 kts | 336° |
| 2026-04-23 03:53 | 33.81293 | -118.06903 | 6928 ft | 263 kts | 336° |
| 2026-04-23 03:54 | 33.82975 | -118.07711 | 6694 ft | 257 kts | 336° |
| 2026-04-23 03:54 | 33.84649 | -118.08520 | 6319 ft | 256 kts | 336° |
| 2026-04-23 03:54 | 33.86243 | -118.09292 | 6184 ft | 245 kts | 336° |
| 2026-04-23 03:54 | 33.87792 | -118.10041 | 6037 ft | 227 kts | 336° |
| 2026-04-23 03:55 | 33.89258 | -118.10546 | 5811 ft | 220 kts | 351° |
| 2026-04-23 03:55 | 33.90782 | -118.10722 | 5510 ft | 221 kts | 354° |
| 2026-04-23 03:55 | 33.92305 | -118.10952 | 4969 ft | 220 kts | 341° |
| 2026-04-23 03:55 | 33.93634 | -118.11808 | 4501 ft | 216 kts | 324° |
| 2026-04-23 03:56 | 33.94823 | -118.12895 | 4001 ft | 214 kts | 317° |
| 2026-04-23 03:56 | 33.95614 | -118.14392 | 3561 ft | 216 kts | 285° |
| 2026-04-23 03:56 | 33.95771 | -118.16186 | 3208 ft | 218 kts | 269° |
| 2026-04-23 03:56 | 33.95694 | -118.18015 | 2858 ft | 218 kts | 268° |
| 2026-04-23 03:57 | 33.95608 | -118.19809 | 2510 ft | 209 kts | 266° |
| 2026-04-23 03:57 | 33.95460 | -118.21472 | 2360 ft | 189 kts | 264° |
| 2026-04-23 03:57 | 33.95296 | -118.22998 | 2360 ft | 181 kts | 264° |
| 2026-04-23 03:57 | 33.95141 | -118.24473 | 2367 ft | 170 kts | 264° |
| 2026-04-23 03:58 | 33.95001 | -118.25823 | 2132 ft | 158 kts | 264° |
| 2026-04-23 03:58 | 33.94869 | -118.27123 | 1946 ft | 155 kts | 264° |
| 2026-04-23 03:58 | 33.94741 | -118.28382 | 1760 ft | 153 kts | 264° |
| 2026-04-23 03:58 | 33.94611 | -118.29653 | 1545 ft | 152 kts | 264° |
| 2026-04-23 03:59 | 33.94484 | -118.30912 | 1351 ft | 152 kts | 264° |
| 2026-04-23 03:59 | 33.94356 | -118.32169 | 1132 ft | 151 kts | 263° |
| 2026-04-23 03:59 | 33.94229 | -118.33424 | 957 ft | 150 kts | 263° |
| 2026-04-23 03:59 | 33.94101 | -118.34676 | 747 ft | 151 kts | 263° |
| 2026-04-23 04:00 | 33.93973 | -118.35931 | 537 ft | 151 kts | 263° |
| 2026-04-23 04:00 | 33.93847 | -118.37175 | 320 ft | 150 kts | 263° |
| 2026-04-23 04:00 | 33.93724 | -118.38389 | 156 ft | 142 kts | 263° |
| 2026-04-23 04:00 | 33.93620 | -118.39419 | 130 ft | 103 kts | 263° |
| 2026-04-23 04:01 | 33.93545 | -118.40145 | 133 ft | 77 kts | 263° |
| 2026-04-23 04:01 | 33.93484 | -118.40675 | 131 ft | 51 kts | 261° |
| 2026-04-23 04:01 | 33.93448 | -118.41005 | 133 ft | 35 kts | 261° |
| 2026-04-23 04:01 | 33.93389 | -118.41200 | 125 ft | 11 kts | 204° |
| 2026-04-23 04:02 | 33.93349 | -118.41187 | 127 ft | 6 kts | 139° |
| 2026-04-23 04:02 | 33.93326 | -118.41131 | 132 ft | 2 kts | 112° |
| 2026-04-23 04:02 | 33.93326 | -118.41128 | 124 ft | 0 kts | 98° |
| 2026-04-23 04:02 | 33.93327 | -118.41124 | 124 ft | 3 kts | 89° |
| 2026-04-23 04:03 | 33.93336 | -118.41026 | 130 ft | 18 kts | 82° |
| 2026-04-23 04:03 | 33.93354 | -118.40877 | 131 ft | 17 kts | 82° |
| 2026-04-23 04:03 | 33.93365 | -118.40740 | 125 ft | 15 kts | 86° |
| 2026-04-23 04:03 | 33.93372 | -118.40627 | 133 ft | 12 kts | 90° |
| 2026-04-23 04:04 | 33.93377 | -118.40545 | 128 ft | 8 kts | 83° |
| 2026-04-23 04:04 | 33.93383 | -118.40492 | 131 ft | 25 kts | 82° |
| 2026-04-23 04:04 | 33.93425 | -118.40166 | 130 ft | 42 kts | 85° |
| 2026-04-23 04:04 | 33.93443 | -118.39825 | 131 ft | 39 kts | 84° |
| 2026-04-23 04:05 | 33.93487 | -118.39510 | 133 ft | 37 kts | 80° |
| 2026-04-23 04:05 | 33.93516 | -118.39211 | 132 ft | 35 kts | 83° |
| 2026-04-23 04:05 | 33.93543 | -118.38929 | 133 ft | 33 kts | 83° |
| 2026-04-23 04:05 | 33.93576 | -118.38647 | 126 ft | 37 kts | 83° |
| 2026-04-23 04:06 | 33.93606 | -118.38331 | 131 ft | 38 kts | 83° |
| 2026-04-23 04:06 | 33.93581 | -118.38134 | 128 ft | 13 kts | 148° |
| 2026-04-23 04:06 | 33.93435 | -118.38126 | 127 ft | 12 kts | 179° |
| 2026-04-23 04:06 | 33.93267 | -118.38208 | 126 ft | 0 kts | 231° |